Time;durP1;ratioP1;P1;durP2;ratioP2;P2;SDS_P1;SDS_P2;PMS_P1;PMS_P2;Temp;Humidity;BMP_temperature;BMP_pressure;BME280_temperature;BME280_humidity;BME280_pressure;Samples;Min_cycle;Max_cycle;Signal;HPM_P1;HPM_P2
2023/07/03 00:00:40;;;;;;;24.17;13.63;;;;;;;22.31;42.15;97186.50;5087582;28;20435;-71
2023/07/03 00:03:05;;;;;;;29.83;20.50;;;;;;;22.25;42.22;97198.09;5096683;28;20205;-69
2023/07/03 00:05:31;;;;;;;28.40;18.47;;;;;;;22.20;42.39;97188.09;5071812;28;21110;-68
2023/07/03 00:07:56;;;;;;;22.87;13.53;;;;;;;22.14;42.20;97186.34;5095823;28;20225;-70
2023/07/03 00:10:22;;;;;;;26.17;15.40;;;;;;;22.06;42.41;97186.66;5095112;28;20757;-68
2023/07/03 00:12:47;;;;;;;22.43;16.13;;;;;;;22.04;42.83;97192.22;5090392;28;20272;-67
2023/07/03 00:15:13;;;;;;;19.27;13.70;;;;;;;22.00;43.04;97184.91;5103770;28;20761;-69
2023/07/03 00:17:39;;;;;;;25.07;16.17;;;;;;;21.98;42.83;97192.31;5062471;28;20214;-70
2023/07/03 00:20:06;;;;;;;24.07;16.10;;;;;;;21.95;43.06;97188.25;5089975;28;20292;-70
2023/07/03 00:22:31;;;;;;;24.83;15.00;;;;;;;21.94;42.99;97186.63;5089101;28;20292;-68
2023/07/03 00:24:56;;;;;;;27.27;16.90;;;;;;;21.92;43.43;97188.69;5089675;28;20538;-70
2023/07/03 00:27:22;;;;;;;21.17;13.23;;;;;;;21.86;43.40;97195.75;5097565;28;20223;-69
2023/07/03 00:29:48;;;;;;;23.83;16.20;;;;;;;21.85;43.54;97194.13;5089581;28;20273;-68
2023/07/03 00:32:13;;;;;;;20.70;14.03;;;;;;;21.83;43.47;97195.41;5074978;28;20190;-69
2023/07/03 00:34:39;;;;;;;27.23;16.40;;;;;;;21.84;43.63;97197.81;5103376;28;20265;-70
2023/07/03 00:37:06;;;;;;;19.27;13.40;;;;;;;21.82;43.60;97199.09;5090007;28;20194;-68
2023/07/03 00:39:31;;;;;;;23.47;14.17;;;;;;;21.82;43.82;97197.22;5089404;28;20463;-69
2023/07/03 00:41:57;;;;;;;21.63;15.20;;;;;;;21.76;43.81;97193.59;5094931;28;20447;-69
2023/07/03 00:44:23;;;;;;;20.30;14.07;;;;;;;21.79;43.61;97195.84;5096403;28;20209;-69
2023/07/03 00:46:49;;;;;;;26.23;17.13;;;;;;;21.81;43.85;97192.94;5088969;28;20436;-67
2023/07/03 00:49:16;;;;;;;20.97;13.67;;;;;;;21.83;44.26;97190.88;5079768;28;20196;-68
2023/07/03 00:51:44;;;;;;;27.07;14.53;;;;;;;21.79;44.33;97195.03;5084022;28;20496;-69
2023/07/03 00:54:10;;;;;;;22.70;13.97;;;;;;;21.81;44.21;97189.47;5089367;28;20441;-68
2023/07/03 00:56:35;;;;;;;28.27;17.13;;;;;;;21.80;44.27;97188.63;5095063;28;20424;-68
2023/07/03 00:59:02;;;;;;;24.30;13.60;;;;;;;21.80;44.03;97191.31;5088886;28;20493;-68
2023/07/03 01:01:34;;;;;;;23.90;15.63;;;;;;;21.79;44.12;97187.03;5069707;28;20271;-68
2023/07/03 01:04:14;;;;;;;27.50;17.53;;;;;;;21.82;44.17;97194.56;5095837;28;20762;-67
2023/07/03 01:06:47;;;;;;;24.23;16.40;;;;;;;21.86;43.46;97182.41;5069851;28;20423;-70
2023/07/03 01:09:16;;;;;;;22.67;15.93;;;;;;;21.91;43.26;97187.91;5074071;28;20423;-71
2023/07/03 01:11:43;;;;;;;21.70;12.90;;;;;;;21.99;43.07;97184.06;5087428;28;20496;-68
2023/07/03 01:14:09;;;;;;;21.90;12.77;;;;;;;21.98;42.09;97181.66;5097713;28;20456;-68
2023/07/03 01:16:35;;;;;;;22.97;12.63;;;;;;;22.05;42.08;97177.06;5072278;28;20486;-66
2023/07/03 01:19:01;;;;;;;23.57;13.47;;;;;;;22.11;42.27;97175.31;5070501;28;20992;-67
2023/07/03 01:21:47;;;;;;;22.70;13.80;;;;;;;22.07;41.42;97177.63;5089230;28;20232;-67
2023/07/03 01:24:31;;;;;;;27.10;11.73;;;;;;;22.08;41.28;97181.91;5074138;28;20492;-68
2023/07/03 01:26:57;;;;;;;18.67;12.30;;;;;;;22.12;41.09;97176.94;5082394;28;20420;-68
2023/07/03 01:29:22;;;;;;;22.27;12.33;;;;;;;22.16;40.80;97178.94;5078965;28;20441;-67
2023/07/03 01:31:48;;;;;;;22.60;12.87;;;;;;;22.22;40.75;97172.69;5100742;28;20439;-70
2023/07/03 01:34:14;;;;;;;20.83;11.73;;;;;;;22.28;40.50;97170.16;5074705;28;20192;-68
2023/07/03 01:36:40;;;;;;;19.57;11.37;;;;;;;22.33;40.17;97178.25;5069127;28;20227;-68
2023/07/03 01:39:07;;;;;;;21.33;11.47;;;;;;;22.36;39.67;97183.16;5070605;28;20304;-69
2023/07/03 01:41:33;;;;;;;18.33;11.50;;;;;;;22.33;39.04;97168.41;5073852;28;20669;-68
2023/07/03 01:43:58;;;;;;;19.13;11.60;;;;;;;22.34;39.49;97172.72;5088755;28;20454;-70
2023/07/03 01:46:24;;;;;;;22.77;11.53;;;;;;;22.35;39.25;97174.34;5068054;28;20217;-68
2023/07/03 01:48:49;;;;;;;24.33;12.17;;;;;;;22.35;39.42;97165.50;5087789;28;20186;-67
2023/07/03 01:51:20;;;;;;;21.40;11.47;;;;;;;22.37;39.70;97158.88;5090755;28;20284;-67
2023/07/03 01:53:49;;;;;;;21.67;11.50;;;;;;;22.41;39.59;97161.97;5080860;28;20190;-67
2023/07/03 01:56:32;;;;;;;20.60;11.50;;;;;;;22.43;39.62;97161.72;5070421;28;20443;-68
2023/07/03 01:59:19;;;;;;;23.40;12.67;;;;;;;22.46;39.34;97163.94;5070940;28;20463;-68
2023/07/03 02:01:51;;;;;;;22.90;11.87;;;;;;;22.44;39.70;97161.50;5071558;28;20450;-67
2023/07/03 02:04:23;;;;;;;23.90;12.37;;;;;;;22.44;39.70;97155.34;5088554;28;20447;-66
2023/07/03 02:06:50;;;;;;;20.10;11.60;;;;;;;22.44;39.24;97158.81;5083132;28;20460;-67
2023/07/03 02:09:16;;;;;;;23.57;11.80;;;;;;;22.42;39.42;97150.25;5069736;28;20449;-68
2023/07/03 02:11:44;;;;;;;21.30;11.57;;;;;;;22.39;39.45;97156.81;5086654;28;20450;-68
2023/07/03 02:14:11;;;;;;;22.03;11.10;;;;;;;22.35;39.49;97154.84;5083498;28;20489;-69
2023/07/03 02:16:38;;;;;;;21.90;11.27;;;;;;;22.38;39.78;97154.38;5087474;28;20459;-68
2023/07/03 02:19:05;;;;;;;19.30;11.17;;;;;;;22.41;39.48;97159.31;5096251;28;20463;-67
2023/07/03 02:21:30;;;;;;;23.83;11.20;;;;;;;22.44;39.78;97156.16;5099789;28;21000;-66
2023/07/03 02:23:56;;;;;;;22.83;11.57;;;;;;;22.46;39.54;97156.75;5090490;28;20493;-68
2023/07/03 02:26:21;;;;;;;18.70;10.83;;;;;;;22.45;39.56;97159.66;5069332;28;20190;-68
2023/07/03 02:28:46;;;;;;;20.57;11.57;;;;;;;22.44;39.32;97156.16;5069341;28;20185;-68
2023/07/03 02:31:12;;;;;;;18.70;11.20;;;;;;;22.42;39.25;97158.25;5087642;28;20237;-67
2023/07/03 02:33:37;;;;;;;17.73;10.70;;;;;;;22.39;39.43;97159.47;5088669;28;20192;-68
2023/07/03 02:36:04;;;;;;;20.93;11.40;;;;;;;22.44;39.75;97158.81;5087723;28;20193;-67
2023/07/03 02:38:29;;;;;;;22.17;10.97;;;;;;;22.41;39.62;97159.31;5094417;28;20246;-68
2023/07/03 02:40:55;;;;;;;17.77;10.30;;;;;;;22.37;39.63;97152.75;5090935;28;20484;-68
2023/07/03 02:43:20;;;;;;;19.70;11.27;;;;;;;22.39;39.62;97153.34;5087779;28;20185;-67
2023/07/03 02:45:46;;;;;;;19.43;11.40;;;;;;;22.37;39.38;97152.75;5087879;28;20682;-68
2023/07/03 02:48:11;;;;;;;21.70;11.47;;;;;;;22.38;39.35;97157.06;5069352;28;20615;-70
2023/07/03 02:50:37;;;;;;;22.67;11.10;;;;;;;22.39;39.24;97156.00;5089706;28;20208;-69
2023/07/03 02:53:02;;;;;;;18.60;12.00;;;;;;;22.40;39.56;97146.97;5095323;28;20196;-69
2023/07/03 02:55:28;;;;;;;19.00;12.23;;;;;;;22.38;39.50;97151.72;5091334;28;20243;-68
2023/07/03 02:57:57;;;;;;;20.57;11.03;;;;;;;22.41;39.58;97153.97;5090728;28;20209;-67
2023/07/03 03:00:23;;;;;;;18.37;10.73;;;;;;;22.42;39.23;97150.25;5090360;28;20201;-68
2023/07/03 03:02:49;;;;;;;21.60;11.20;;;;;;;22.43;39.15;97151.84;5091923;28;20430;-69
2023/07/03 03:05:14;;;;;;;19.70;10.43;;;;;;;22.44;39.28;97153.47;5091477;28;20670;-70
2023/07/03 03:07:40;;;;;;;24.23;11.20;;;;;;;22.43;38.90;97143.84;5084825;28;20247;-70
2023/07/03 03:10:06;;;;;;;17.53;9.80;;;;;;;22.46;39.02;97150.59;5093022;28;20209;-68
2023/07/03 03:12:32;;;;;;;20.30;10.60;;;;;;;22.46;39.15;97145.25;5090178;28;20682;-69
2023/07/03 03:14:57;;;;;;;20.83;10.70;;;;;;;22.43;39.01;97140.38;5088641;28;20469;-67
2023/07/03 03:17:23;;;;;;;28.03;10.63;;;;;;;22.29;39.30;97148.56;5089627;28;20557;-67
2023/07/03 03:19:48;;;;;;;20.97;10.77;;;;;;;22.28;39.35;97146.94;5090341;28;20292;-67
2023/07/03 03:22:14;;;;;;;21.80;11.27;;;;;;;22.30;39.52;97144.03;5095653;28;20192;-68
2023/07/03 03:24:40;;;;;;;25.53;11.60;;;;;;;22.24;39.30;97143.91;5090319;28;20837;-68
2023/07/03 03:27:06;;;;;;;13.70;10.20;;;;;;;22.24;39.42;97146.56;5075981;28;20189;-67
2023/07/03 03:29:36;;;;;;;19.00;11.40;;;;;;;22.20;39.56;97141.94;5087472;28;20273;-68
2023/07/03 03:32:02;;;;;;;16.60;10.40;;;;;;;22.17;39.76;97147.72;5090409;28;20451;-68
2023/07/03 03:34:28;;;;;;;19.60;10.57;;;;;;;22.23;39.57;97144.94;5089417;28;20463;-67
2023/07/03 03:36:54;;;;;;;19.63;11.20;;;;;;;22.27;39.63;97139.97;5105745;28;20809;-68
2023/07/03 03:39:19;;;;;;;20.30;10.10;;;;;;;22.25;39.66;97140.19;5092575;28;20209;-68
2023/07/03 03:41:45;;;;;;;18.57;10.30;;;;;;;22.22;39.84;97145.19;5094145;28;20486;-68
2023/07/03 03:44:10;;;;;;;19.00;9.80;;;;;;;22.21;39.56;97139.03;5096986;28;20310;-69
2023/07/03 03:46:36;;;;;;;18.10;11.30;;;;;;;22.23;39.56;97144.94;5088569;28;20273;-67
2023/07/03 03:49:02;;;;;;;19.70;10.97;;;;;;;22.29;39.65;97147.75;5089490;28;20189;-68
2023/07/03 03:51:27;;;;;;;19.63;9.80;;;;;;;22.34;39.70;97148.69;5088494;28;20212;-68
2023/07/03 03:53:53;;;;;;;20.23;10.07;;;;;;;22.35;39.84;97155.66;5089149;28;20916;-68
2023/07/03 03:56:19;;;;;;;17.70;10.60;;;;;;;22.37;39.53;97150.88;5089328;28;20221;-68
2023/07/03 03:58:46;;;;;;;20.67;11.33;;;;;;;22.37;39.61;97156.22;5087972;28;20212;-67
2023/07/03 04:01:12;;;;;;;21.03;10.40;;;;;;;22.34;39.85;97161.22;5090562;28;21094;-68
2023/07/03 04:03:37;;;;;;;19.47;10.60;;;;;;;22.31;39.71;97153.66;5088721;28;20424;-67
2023/07/03 04:06:03;;;;;;;20.97;11.20;;;;;;;22.35;39.78;97157.50;5090027;28;20432;-68
2023/07/03 04:08:29;;;;;;;24.50;11.60;;;;;;;22.31;39.83;97167.00;5087904;28;20669;-67
2023/07/03 04:10:54;;;;;;;21.83;11.80;;;;;;;22.33;39.98;97163.06;5090608;28;20248;-69
2023/07/03 04:13:19;;;;;;;21.33;10.83;;;;;;;22.36;40.08;97162.63;5088513;28;20181;-68
2023/07/03 04:15:51;;;;;;;22.00;11.60;;;;;;;22.31;40.04;97164.31;5102868;28;20201;-67
2023/07/03 04:18:21;;;;;;;18.23;10.20;;;;;;;22.30;40.03;97162.72;5090392;28;20236;-70
2023/07/03 04:20:46;;;;;;;21.30;11.03;;;;;;;22.34;40.16;97163.88;5095144;28;20459;-68
2023/07/03 04:23:12;;;;;;;18.73;10.53;;;;;;;22.33;40.21;97151.56;5092937;28;20460;-69
2023/07/03 04:25:38;;;;;;;17.07;9.97;;;;;;;22.17;40.44;97153.06;5088846;28;20200;-68
2023/07/03 04:28:03;;;;;;;19.80;10.90;;;;;;;22.18;40.47;97158.16;5089069;28;20189;-68
2023/07/03 04:30:29;;;;;;;20.30;10.30;;;;;;;22.15;40.61;97163.13;5088543;28;20236;-67
2023/07/03 04:32:54;;;;;;;18.00;10.57;;;;;;;22.16;40.66;97165.59;5091861;28;20304;-68
2023/07/03 04:35:21;;;;;;;21.70;10.73;;;;;;;22.22;40.80;97169.22;5088887;28;20228;-69
2023/07/03 04:37:46;;;;;;;18.13;10.33;;;;;;;22.24;40.93;97169.81;5082726;28;20239;-68
2023/07/03 04:40:12;;;;;;;14.27;10.63;;;;;;;22.13;40.99;97174.06;5087773;28;20578;-66
2023/07/03 04:42:38;;;;;;;21.20;10.67;;;;;;;22.16;41.17;97172.78;5088384;28;20193;-69
2023/07/03 04:45:06;;;;;;;18.27;10.80;;;;;;;22.12;41.12;97169.75;5092862;28;20489;-67
2023/07/03 04:47:31;;;;;;;18.17;10.60;;;;;;;22.16;40.97;97172.78;5089252;28;20205;-67
2023/07/03 04:49:58;;;;;;;18.83;11.10;;;;;;;22.18;41.13;97176.84;5088266;28;20478;-68
2023/07/03 04:52:27;;;;;;;20.27;11.00;;;;;;;22.21;40.90;97176.38;5088604;28;20196;-67
2023/07/03 04:54:54;;;;;;;19.43;11.30;;;;;;;22.24;41.13;97177.81;5085881;28;20427;-69
2023/07/03 04:57:19;;;;;;;16.70;10.40;;;;;;;22.20;41.13;97179.28;5089008;28;20428;-66
2023/07/03 04:59:45;;;;;;;25.03;11.20;;;;;;;22.28;41.24;97176.28;5087234;28;20544;-68
2023/07/03 05:02:12;;;;;;;18.73;10.70;;;;;;;22.23;41.11;97174.31;5076019;28;20201;-67
2023/07/03 05:04:37;;;;;;;24.17;10.63;;;;;;;22.29;41.24;97177.13;5087839;28;20272;-66
2023/07/03 05:07:03;;;;;;;19.70;10.30;;;;;;;22.31;41.31;97169.66;5087952;28;20531;-68
2023/07/03 05:09:29;;;;;;;21.13;10.57;;;;;;;22.36;41.33;97172.47;5087257;28;20901;-68
2023/07/03 05:11:55;;;;;;;22.93;10.43;;;;;;;22.42;41.38;97181.47;5081854;28;20714;-67
2023/07/03 05:14:20;;;;;;;21.67;11.10;;;;;;;22.47;41.09;97185.06;5086534;28;20447;-70
2023/07/03 05:16:46;;;;;;;17.53;10.20;;;;;;;22.53;41.40;97186.00;5082958;28;20221;-69
2023/07/03 05:19:13;;;;;;;16.00;9.90;;;;;;;22.58;41.14;97187.97;5089792;28;20240;-70
2023/07/03 05:21:38;;;;;;;22.23;9.90;;;;;;;22.64;41.12;97192.41;5081821;28;20258;-67
2023/07/03 05:24:04;;;;;;;21.27;10.40;;;;;;;22.63;40.68;97194.25;5089364;28;20540;-67
2023/07/03 05:26:30;;;;;;;16.83;10.23;;;;;;;22.64;40.75;97189.75;5067322;28;20185;-66
2023/07/03 05:28:55;;;;;;;24.77;10.63;;;;;;;22.51;40.70;97196.09;5053998;28;20189;-69
2023/07/03 05:31:23;;;;;;;15.57;9.70;;;;;;;22.63;40.68;97198.78;5083605;28;20700;-70
2023/07/03 05:33:49;;;;;;;16.53;9.97;;;;;;;22.74;40.65;97205.22;5074510;28;20185;-70
2023/07/03 05:36:14;;;;;;;16.60;9.83;;;;;;;22.78;40.76;97207.19;5095772;28;20450;-68
2023/07/03 05:38:40;;;;;;;17.20;8.93;;;;;;;22.77;40.56;97205.56;5088123;28;20459;-68
2023/07/03 05:41:05;;;;;;;17.53;8.60;;;;;;;22.80;40.27;97205.09;5071077;28;20304;-68
2023/07/03 05:43:31;;;;;;;17.40;9.20;;;;;;;22.82;40.29;97202.97;5096196;28;20326;-67
2023/07/03 05:45:56;;;;;;;17.50;9.60;;;;;;;22.88;40.29;97205.78;5088020;28;20738;-69
2023/07/03 05:48:23;;;;;;;15.63;9.10;;;;;;;22.79;40.16;97198.13;5093445;28;20697;-68
2023/07/03 05:50:48;;;;;;;17.23;9.30;;;;;;;22.79;40.58;97206.13;5088254;28;20214;-68
2023/07/03 05:53:14;;;;;;;14.00;9.07;;;;;;;22.89;40.57;97204.75;5087377;28;20436;-69
2023/07/03 05:55:39;;;;;;;18.60;9.47;;;;;;;22.95;40.30;97201.13;5088884;28;20182;-65
2023/07/03 05:58:05;;;;;;;23.17;9.90;;;;;;;22.98;40.01;97204.19;5087593;28;20224;-69
2023/07/03 06:00:31;;;;;;;19.57;9.00;;;;;;;23.06;39.78;97204.84;5086620;28;20300;-68
2023/07/03 06:02:57;;;;;;;15.77;8.37;;;;;;;23.17;40.11;97204.03;5069636;28;20282;-68
2023/07/03 06:05:22;;;;;;;13.77;8.70;;;;;;;23.28;40.07;97213.13;5087586;28;20209;-68
2023/07/03 06:07:49;;;;;;;15.33;9.27;;;;;;;23.34;39.88;97209.50;5093535;28;20987;-68
2023/07/03 06:10:14;;;;;;;18.30;9.47;;;;;;;23.38;39.79;97218.69;5095228;28;20205;-70
2023/07/03 06:12:41;;;;;;;17.87;8.53;;;;;;;23.17;39.63;97214.72;5087101;28;20993;-67
2023/07/03 06:15:06;;;;;;;16.73;8.73;;;;;;;23.11;39.63;97216.47;5087396;28;20610;-68
2023/07/03 06:17:32;;;;;;;16.50;9.00;;;;;;;23.18;40.04;97224.38;5086663;28;20423;-68
2023/07/03 06:19:57;;;;;;;18.53;8.60;;;;;;;23.24;39.76;97217.31;5086978;28;20185;-68
2023/07/03 06:22:23;;;;;;;14.73;8.40;;;;;;;23.31;39.91;97220.69;5088073;28;20192;-69
2023/07/03 06:24:49;;;;;;;15.77;9.00;;;;;;;23.29;39.83;97217.44;5087651;28;20284;-68
2023/07/03 06:27:15;;;;;;;14.13;8.33;;;;;;;23.34;39.99;97230.91;5088000;28;20204;-67
2023/07/03 06:29:40;;;;;;;14.13;7.90;;;;;;;23.31;39.78;97220.69;5087351;28;20189;-68
2023/07/03 06:32:08;;;;;;;15.17;8.40;;;;;;;23.25;39.64;97226.97;5086349;28;20217;-69
2023/07/03 06:34:33;;;;;;;19.07;8.20;;;;;;;23.13;39.72;97237.63;5086297;28;20654;-68
2023/07/03 06:37:00;;;;;;;12.87;8.07;;;;;;;22.99;39.97;97229.03;5086988;28;20442;-69
2023/07/03 06:39:26;;;;;;;13.20;7.20;;;;;;;23.13;39.94;97229.59;5086349;28;20218;-70
2023/07/03 06:41:51;;;;;;;13.57;8.20;;;;;;;23.24;39.83;97230.69;5090212;28;20458;-69
2023/07/03 06:44:18;;;;;;;14.90;8.10;;;;;;;23.28;39.82;97229.19;5086919;28;20288;-70
2023/07/03 06:46:44;;;;;;;14.00;7.90;;;;;;;23.25;39.59;97235.78;5067868;28;20225;-70
2023/07/03 06:49:10;;;;;;;15.07;8.33;;;;;;;23.33;39.68;97233.81;5086961;28;20498;-69
2023/07/03 06:51:36;;;;;;;13.50;8.87;;;;;;;23.43;39.60;97229.50;5086334;28;20220;-69
2023/07/03 06:54:02;;;;;;;13.50;7.87;;;;;;;23.47;39.32;97241.34;5087488;28;20559;-68
2023/07/03 06:56:28;;;;;;;18.93;8.60;;;;;;;23.42;39.34;97235.06;5093013;28;20457;-69
2023/07/03 06:58:53;;;;;;;15.30;8.00;;;;;;;23.42;39.15;97241.25;5086491;28;20304;-70
2023/07/03 07:01:22;;;;;;;20.83;9.10;;;;;;;23.55;39.03;97236.72;5083192;28;21175;-69
2023/07/03 07:03:47;;;;;;;14.67;7.97;;;;;;;23.63;38.82;97229.09;5092786;28;20197;-69
2023/07/03 07:06:21;;;;;;;14.70;7.77;;;;;;;23.74;38.41;97232.00;5086437;28;20431;-70
2023/07/03 07:08:46;;;;;;;15.73;8.30;;;;;;;23.81;38.52;97232.69;5068267;28;20277;-68
2023/07/03 07:11:14;;;;;;;18.40;8.30;;;;;;;23.67;38.31;97224.13;5089421;28;20460;-67
2023/07/03 07:13:42;;;;;;;14.37;7.97;;;;;;;23.89;38.51;97231.50;5092045;28;20193;-68
2023/07/03 07:16:15;;;;;;;14.27;7.80;;;;;;;24.03;38.35;97227.53;5081958;28;20425;-68
2023/07/03 07:18:41;;;;;;;15.37;7.83;;;;;;;24.11;38.27;97222.84;5086489;28;20570;-67
2023/07/03 07:21:07;;;;;;;18.43;7.67;;;;;;;24.13;37.57;97228.75;5086225;28;20512;-69
2023/07/03 07:23:33;;;;;;;18.57;8.43;;;;;;;24.18;37.97;97231.53;5086015;28;20213;-68
2023/07/03 07:25:58;;;;;;;17.57;8.67;;;;;;;24.08;38.24;97232.16;5088503;28;20483;-69
2023/07/03 07:28:24;;;;;;;23.27;7.83;;;;;;;24.14;38.27;97233.06;5086068;28;20280;-68
2023/07/03 07:30:49;;;;;;;15.13;8.37;;;;;;;24.07;37.69;97234.00;5086090;28;20221;-67
2023/07/03 07:33:15;;;;;;;18.77;8.83;;;;;;;24.00;38.19;97233.34;5093930;28;20622;-68
2023/07/03 07:35:41;;;;;;;15.03;7.87;;;;;;;24.05;38.40;97224.59;5086194;28;20189;-67
2023/07/03 07:38:07;;;;;;;13.83;8.20;;;;;;;23.89;38.23;97228.81;5086179;28;20217;-69
2023/07/03 07:40:32;;;;;;;16.27;7.83;;;;;;;23.99;38.50;97229.03;5091990;28;20820;-68
2023/07/03 07:42:58;;;;;;;14.77;8.23;;;;;;;24.01;38.46;97234.97;5071886;28;20195;-68
2023/07/03 07:45:23;;;;;;;14.90;8.30;;;;;;;24.03;38.72;97235.56;5090457;28;20232;-68
2023/07/03 07:47:49;;;;;;;16.20;7.47;;;;;;;24.01;38.67;97242.19;5090178;28;20190;-69
2023/07/03 07:50:14;;;;;;;18.43;7.80;;;;;;;23.98;38.73;97243.47;5089652;28;20294;-68
2023/07/03 07:52:40;;;;;;;11.60;8.10;;;;;;;24.06;38.59;97244.97;5089473;28;20201;-68
2023/07/03 07:55:06;;;;;;;15.80;8.00;;;;;;;24.18;38.83;97244.94;5095062;28;20637;-68
2023/07/03 07:57:31;;;;;;;24.17;8.20;;;;;;;24.26;38.62;97246.41;5092060;28;20662;-68
2023/07/03 07:59:57;;;;;;;12.97;7.40;;;;;;;24.37;38.53;97245.53;5089622;28;20547;-68
2023/07/03 08:02:22;;;;;;;12.80;7.57;;;;;;;24.39;38.07;97244.25;5078709;28;20206;-68
2023/07/03 08:04:48;;;;;;;17.70;8.33;;;;;;;24.44;38.61;97242.72;5089664;28;20189;-68
2023/07/03 08:07:14;;;;;;;14.63;8.43;;;;;;;24.53;38.41;97241.25;5089052;28;20189;-68
2023/07/03 08:09:39;;;;;;;15.60;9.20;;;;;;;24.57;38.36;97230.88;5078566;28;20424;-67
2023/07/03 08:12:05;;;;;;;15.63;8.87;;;;;;;24.64;37.81;97239.56;5089811;28;20210;-68
2023/07/03 08:14:31;;;;;;;15.13;8.00;;;;;;;24.60;37.56;97241.09;5077874;28;20205;-68
2023/07/03 08:16:57;;;;;;;15.97;8.33;;;;;;;24.64;37.45;97247.59;5089406;28;20200;-69
2023/07/03 08:19:22;;;;;;;20.00;8.67;;;;;;;24.62;37.54;97239.81;5089659;28;20467;-67
2023/07/03 08:21:48;;;;;;;14.57;8.43;;;;;;;24.63;37.41;97249.47;5088825;28;20582;-69
2023/07/03 08:24:13;;;;;;;15.43;7.53;;;;;;;24.56;37.32;97245.31;5090749;28;20221;-68
2023/07/03 08:26:39;;;;;;;14.60;7.13;;;;;;;24.62;37.12;97244.38;5091239;28;20217;-68
2023/07/03 08:29:04;;;;;;;20.20;8.30;;;;;;;24.64;37.03;97248.41;5090539;28;20201;-70
2023/07/03 08:31:29;;;;;;;15.13;7.60;;;;;;;24.67;36.77;97242.59;5087983;28;20243;-68
2023/07/03 08:33:55;;;;;;;14.10;8.00;;;;;;;24.71;36.96;97242.09;5089525;28;20195;-68
2023/07/03 08:36:22;;;;;;;20.90;7.77;;;;;;;24.68;36.99;97246.06;5089190;28;20732;-67
2023/07/03 08:38:47;;;;;;;19.97;8.03;;;;;;;24.63;37.03;97254.81;5087802;28;20288;-69
2023/07/03 08:41:13;;;;;;;14.60;7.90;;;;;;;24.71;36.68;97248.28;5091131;28;20447;-69
2023/07/03 08:43:42;;;;;;;16.13;7.97;;;;;;;24.81;37.13;97247.66;5088561;28;20185;-69
2023/07/03 08:46:19;;;;;;;15.97;7.77;;;;;;;24.87;36.42;97246.66;5089037;28;21133;-68
2023/07/03 08:48:45;;;;;;;16.17;7.80;;;;;;;24.91;36.39;97239.78;5069334;28;20426;-68
2023/07/03 08:51:15;;;;;;;17.67;8.70;;;;;;;24.90;36.67;97256.91;5087963;28;20459;-67
2023/07/03 08:53:43;;;;;;;14.27;7.50;;;;;;;24.88;36.97;97256.34;5071190;28;20518;-68
2023/07/03 08:56:14;;;;;;;16.20;7.90;;;;;;;24.80;36.75;97251.38;5075668;28;21004;-68
2023/07/03 08:58:40;;;;;;;13.23;7.63;;;;;;;24.74;36.41;97252.34;5069953;28;20463;-68
2023/07/03 09:01:17;;;;;;;14.47;7.17;;;;;;;24.69;36.89;97253.91;5088825;28;20506;-68
2023/07/03 09:04:04;;;;;;;21.67;8.47;;;;;;;24.57;36.34;97258.50;5092684;28;20557;-66
2023/07/03 09:06:38;;;;;;;13.80;7.60;;;;;;;24.56;36.63;97256.88;5087406;28;20531;-68
2023/07/03 09:09:28;;;;;;;16.03;8.30;;;;;;;24.59;37.15;97255.56;5088449;28;20439;-68
2023/07/03 09:12:08;;;;;;;19.00;8.33;;;;;;;24.74;36.34;97252.34;5070934;28;20443;-70
2023/07/03 09:14:41;;;;;;;20.70;7.70;;;;;;;24.82;36.47;97254.66;5094748;28;20427;-70
2023/07/03 09:17:11;;;;;;;15.77;7.73;;;;;;;24.83;35.97;97248.19;5087239;28;20427;-69
2023/07/03 09:19:39;;;;;;;18.10;8.13;;;;;;;24.86;36.09;97260.31;5059876;28;20469;-68
2023/07/03 09:22:05;;;;;;;12.00;7.20;;;;;;;24.93;36.80;97260.97;5069081;28;20459;-67
2023/07/03 09:24:37;;;;;;;18.03;8.10;;;;;;;24.97;36.07;97260.22;5068201;28;20599;-69
2023/07/03 09:27:13;;;;;;;14.27;7.70;;;;;;;24.95;35.70;97256.97;5081763;28;20435;-69
2023/07/03 09:29:39;;;;;;;16.73;7.03;;;;;;;24.97;35.78;97260.22;5075337;28;20853;-69
2023/07/03 09:32:04;;;;;;;18.80;8.10;;;;;;;25.07;35.64;97269.50;5084101;28;20482;-70
2023/07/03 09:34:58;;;;;;;16.97;7.20;;;;;;;25.13;35.57;97260.47;5093199;28;20431;-70
2023/07/03 09:37:23;;;;;;;12.03;6.60;;;;;;;25.30;35.11;97257.75;5080079;28;20189;-68
2023/07/03 09:39:51;;;;;;;11.57;6.60;;;;;;;25.36;34.88;97258.66;5085520;28;20542;-70
2023/07/03 09:42:17;;;;;;;12.50;6.97;;;;;;;25.35;34.17;97252.47;5086181;28;20209;-68
2023/07/03 09:44:42;;;;;;;15.97;6.30;;;;;;;25.47;34.21;97254.28;5087601;28;20505;-68
2023/07/03 09:47:24;;;;;;;13.60;6.63;;;;;;;25.74;33.85;97254.34;5087618;28;20205;-68
2023/07/03 09:49:50;;;;;;;13.50;6.97;;;;;;;25.97;34.04;97258.66;5069028;28;20272;-68
2023/07/03 09:52:16;;;;;;;14.37;6.37;;;;;;;26.14;33.31;97247.06;5070059;28;21031;-69
2023/07/03 09:54:44;;;;;;;14.20;6.63;;;;;;;26.16;33.05;97256.50;5074253;28;20190;-69
2023/07/03 09:57:25;;;;;;;16.07;6.60;;;;;;;26.16;33.09;97256.50;5067671;28;20190;-69
2023/07/03 09:59:51;;;;;;;12.37;5.63;;;;;;;26.13;33.17;97250.81;5095473;28;20811;-69
2023/07/03 10:02:21;;;;;;;14.00;6.37;;;;;;;26.16;33.19;97266.41;5087145;28;20447;-68
2023/07/03 10:04:47;;;;;;;17.07;6.10;;;;;;;26.18;33.16;97258.91;5082103;28;20429;-69
2023/07/03 10:07:16;;;;;;;13.13;6.03;;;;;;;26.13;32.69;97262.34;5080540;28;20442;-69
2023/07/03 10:09:43;;;;;;;12.47;6.27;;;;;;;26.29;32.58;97265.22;5079309;28;20205;-68
2023/07/03 10:12:32;;;;;;;9.07;5.63;;;;;;;26.38;32.64;97266.38;5082716;28;20452;-67
2023/07/03 10:15:06;;;;;;;16.53;6.00;;;;;;;26.30;31.98;97261.47;5069502;28;20431;-69
2023/07/03 10:17:35;;;;;;;11.93;6.10;;;;;;;26.11;32.15;97269.06;5069542;28;20424;-68
2023/07/03 10:20:03;;;;;;;8.10;5.50;;;;;;;26.09;32.18;97265.78;5068661;28;21173;-69
2023/07/03 10:22:29;;;;;;;11.77;6.23;;;;;;;26.11;32.08;97263.69;5076003;28;20462;-67
2023/07/03 10:25:00;;;;;;;10.43;5.60;;;;;;;26.24;31.85;97262.47;5069659;28;20435;-69
2023/07/03 10:27:28;;;;;;;10.97;5.47;;;;;;;26.36;31.93;97265.81;5087680;28;20456;-69
2023/07/03 10:29:53;;;;;;;14.47;5.60;;;;;;;26.75;31.95;97265.66;5084911;28;20457;-69
2023/07/03 10:32:20;;;;;;;10.90;5.33;;;;;;;26.90;31.82;97269.56;5069370;28;20956;-69
2023/07/03 10:35:02;;;;;;;11.37;5.13;;;;;;;26.97;30.47;97264.75;5084201;28;20196;-68
2023/07/03 10:37:32;;;;;;;16.70;5.73;;;;;;;26.97;30.75;97270.13;5060810;28;20444;-68
2023/07/03 10:40:22;;;;;;;7.90;4.60;;;;;;;26.83;29.91;97265.22;5082551;28;20524;-68
2023/07/03 10:42:53;;;;;;;14.43;5.07;;;;;;;26.77;30.34;97265.41;5075378;28;20497;-68
2023/07/03 10:45:19;;;;;;;12.97;4.90;;;;;;;26.91;30.31;97271.19;5060243;28;20520;-69
2023/07/03 10:48:01;;;;;;;10.27;5.57;;;;;;;27.07;30.75;97275.63;5085167;28;20429;-69
2023/07/03 10:50:33;;;;;;;10.60;5.43;;;;;;;27.02;30.11;97266.72;5083720;28;20534;-69
2023/07/03 10:53:11;;;;;;;10.13;5.17;;;;;;;27.01;29.87;97267.78;5082850;28;20427;-69
2023/07/03 10:55:42;;;;;;;11.07;4.30;;;;;;;26.85;29.55;97264.97;5072243;28;20480;-68
2023/07/03 10:58:07;;;;;;;9.93;4.53;;;;;;;26.79;30.01;97268.66;5093813;28;20511;-71
2023/07/03 11:00:55;;;;;;;10.03;4.07;;;;;;;26.59;30.18;97264.69;5095006;28;20482;-70
2023/07/03 11:03:37;;;;;;;6.73;3.67;;;;;;;26.67;30.65;97266.91;5087772;28;20224;-68
2023/07/03 11:06:05;;;;;;;11.97;5.07;;;;;;;26.96;30.60;97261.28;5069694;28;20478;-70
2023/07/03 11:08:56;;;;;;;9.53;5.87;;;;;;;27.36;29.77;97259.13;5068184;28;20431;-69
2023/07/03 11:11:43;;;;;;;13.80;4.67;;;;;;;27.51;29.58;97257.63;5064125;28;20459;-70
2023/07/03 11:14:30;;;;;;;6.03;4.00;;;;;;;27.71;29.79;97268.50;5096534;28;20998;-69
2023/07/03 11:17:05;;;;;;;10.87;4.20;;;;;;;27.66;29.13;97264.97;5090565;28;20436;-68
2023/07/03 11:20:08;;;;;;;4.83;3.00;;;;;;;27.94;28.82;97260.22;5090345;28;20477;-67
2023/07/03 11:22:55;;;;;;;6.20;3.63;;;;;;;28.29;29.31;97262.25;5072613;28;20805;-70
2023/07/03 11:25:23;;;;;;;8.50;3.80;;;;;;;28.33;28.09;97267.91;5078588;28;21151;-69